createdAt,value
2018-07-24T00:01:43.213Z,1011.55
2018-07-24T00:02:43.721Z,1011.55
2018-07-24T00:04:39.162Z,1011.54
2018-07-24T00:05:40.678Z,1011.51
2018-07-24T00:07:34.132Z,1011.49
2018-07-24T00:08:33.620Z,1011.50
2018-07-24T00:10:28.064Z,1011.51
2018-07-24T00:11:28.089Z,1011.48
2018-07-24T00:13:24.084Z,1011.51
2018-07-24T00:14:24.056Z,1011.49
2018-07-24T00:16:18.493Z,1011.50
2018-07-24T00:17:19.022Z,1011.48
2018-07-24T00:19:12.948Z,1011.48
2018-07-24T00:20:12.958Z,1011.51
2018-07-24T00:22:11.431Z,1011.47
2018-07-24T00:23:11.913Z,1011.50
2018-07-24T00:25:05.899Z,1011.49
2018-07-24T00:26:05.386Z,1011.47
2018-07-24T00:28:00.343Z,1011.50
2018-07-24T00:28:59.840Z,1011.51
2018-07-24T00:30:55.769Z,1011.49
2018-07-24T00:31:55.786Z,1011.48
2018-07-24T00:33:51.740Z,1011.48
2018-07-24T00:34:51.757Z,1011.49
2018-07-24T00:36:46.220Z,1011.48
2018-07-24T00:37:46.210Z,1011.45
2018-07-24T00:39:41.659Z,1011.38
2018-07-24T00:40:40.662Z,1011.42
2018-07-24T00:42:35.630Z,1011.44
2018-07-24T00:43:35.163Z,1011.45
2018-07-24T00:45:30.084Z,1011.42
2018-07-24T00:46:29.569Z,1011.41
2018-07-24T00:48:26.020Z,1011.36
2018-07-24T00:49:24.015Z,1011.37
2018-07-24T00:51:18.498Z,1011.36
2018-07-24T00:52:18.488Z,1011.32
2018-07-24T00:54:12.985Z,1011.33
2018-07-24T00:55:14.386Z,1011.31
2018-07-24T00:57:08.417Z,1011.31
2018-07-24T00:58:07.406Z,1011.32
2018-07-24T01:00:01.366Z,1011.35
2018-07-24T01:01:00.858Z,1011.34
2018-07-24T01:02:55.820Z,1011.31
2018-07-24T01:03:55.834Z,1011.31
2018-07-24T01:05:49.781Z,1011.33
2018-07-24T01:06:49.778Z,1011.30
2018-07-24T01:08:44.250Z,1011.27
2018-07-24T01:09:44.233Z,1011.28
2018-07-24T01:11:38.706Z,1011.25
2018-07-24T01:12:40.198Z,1011.26
2018-07-24T01:14:34.123Z,1011.25
2018-07-24T01:15:33.129Z,1011.26
2018-07-24T01:17:27.100Z,1011.27
2018-07-24T01:18:26.576Z,1011.28
2018-07-24T01:20:22.562Z,1011.25
2018-07-24T01:21:23.063Z,1011.24
2018-07-24T01:23:19.518Z,1011.27
2018-07-24T01:24:18.504Z,1011.25
2018-07-24T01:26:12.985Z,1011.23
2018-07-24T01:27:12.970Z,1011.24
2018-07-24T01:29:07.937Z,1011.21
2018-07-24T01:30:07.428Z,1011.22
2018-07-24T01:32:03.409Z,1011.19
2018-07-24T01:33:03.449Z,1011.16
2018-07-24T01:35:00.854Z,1011.20
2018-07-24T01:35:59.322Z,1011.13
2018-07-24T01:37:53.778Z,1011.17
2018-07-24T01:38:53.307Z,1011.19
2018-07-24T01:40:47.269Z,1011.17
2018-07-24T01:41:47.266Z,1011.16
2018-07-24T01:43:44.733Z,1011.14
2018-07-24T01:44:43.229Z,1011.17
2018-07-24T01:46:37.710Z,1011.13
2018-07-24T01:47:37.694Z,1011.14
2018-07-24T01:49:33.165Z,1011.13
2018-07-24T01:50:32.150Z,1011.13
2018-07-24T01:52:26.612Z,1011.15
2018-07-24T01:53:26.617Z,1011.13
2018-07-24T01:55:21.580Z,1011.18
2018-07-24T01:56:21.579Z,1011.13
2018-07-24T01:58:17.489Z,1011.15
2018-07-24T01:59:15.505Z,1011.11
2018-07-24T02:01:09.975Z,1011.10
2018-07-24T02:02:09.952Z,1011.13
2018-07-24T02:04:04.923Z,1011.11
2018-07-24T02:05:04.417Z,1011.07
2018-07-24T02:07:00.878Z,1011.09
2018-07-24T02:07:59.384Z,1011.05
2018-07-24T02:09:53.363Z,1011.07
2018-07-24T02:10:53.352Z,1011.03
2018-07-24T02:12:47.819Z,1011.05
2018-07-24T02:13:47.807Z,1011.07
2018-07-24T02:15:44.279Z,1011.04
2018-07-24T02:16:44.269Z,1011.01
2018-07-24T02:18:41.197Z,1011.04
2018-07-24T02:19:40.191Z,1011.05
2018-07-24T02:21:34.149Z,1011.03
2018-07-24T02:22:35.141Z,1011.03
2018-07-24T02:24:28.617Z,1010.99
2018-07-24T02:25:27.621Z,1011.03
2018-07-24T02:27:24.098Z,1011.03
2018-07-24T02:28:23.575Z,1011.02
2018-07-24T02:30:18.026Z,1010.98
2018-07-24T02:31:18.035Z,1010.98
2018-07-24T02:33:14.495Z,1010.98
2018-07-24T02:34:13.996Z,1010.98
2018-07-24T02:36:08.963Z,1011.00
2018-07-24T02:37:08.460Z,1011.01
2018-07-24T02:39:02.934Z,1010.97
2018-07-24T02:40:03.914Z,1010.97
2018-07-24T02:41:57.883Z,1010.97
2018-07-24T02:42:57.376Z,1010.94
2018-07-24T02:44:50.868Z,1010.97
2018-07-24T02:45:50.807Z,1010.95
2018-07-24T02:47:44.259Z,1010.95
2018-07-24T02:48:45.273Z,1010.95
2018-07-24T02:50:38.225Z,1010.96
2018-07-24T02:51:37.735Z,1010.96
2018-07-24T02:53:33.180Z,1011.00
2018-07-24T02:54:32.178Z,1010.99
2018-07-24T02:56:27.137Z,1011.02
2018-07-24T02:57:26.642Z,1011.04
2018-07-24T02:59:21.085Z,1011.03
2018-07-24T03:00:21.590Z,1011.04
2018-07-24T03:02:16.050Z,1011.01
2018-07-24T03:03:16.049Z,1011.02
2018-07-24T03:05:09.522Z,1011.00
2018-07-24T03:06:09.492Z,1011.02
2018-07-24T03:08:03.399Z,1011.03
2018-07-24T03:09:03.922Z,1011.01
2018-07-24T03:10:59.409Z,1011.01
2018-07-24T03:12:00.382Z,1011.03
2018-07-24T03:13:53.869Z,1011.04
2018-07-24T03:14:53.856Z,1011.02
2018-07-24T03:16:47.334Z,1011.03
2018-07-24T03:17:47.324Z,1011.02
2018-07-24T03:19:40.767Z,1010.97
2018-07-24T03:20:40.793Z,1010.98
2018-07-24T03:22:35.260Z,1011.03
2018-07-24T03:23:35.235Z,1010.98
2018-07-24T03:25:29.650Z,1010.97
2018-07-24T03:26:30.200Z,1010.95
2018-07-24T03:28:25.610Z,1010.95
2018-07-24T03:29:25.623Z,1010.97
2018-07-24T03:31:20.095Z,1010.98
2018-07-24T03:32:20.073Z,1010.99
2018-07-24T03:34:15.056Z,1010.98
2018-07-24T03:35:14.560Z,1010.96
2018-07-24T03:37:09.516Z,1010.96
2018-07-24T03:38:09.005Z,1010.94
2018-07-24T03:40:03.481Z,1010.96
2018-07-24T03:41:03.458Z,1010.94
2018-07-24T03:42:57.889Z,1010.93
2018-07-24T03:43:58.406Z,1010.93
2018-07-24T03:45:51.392Z,1010.96
2018-07-24T03:46:51.364Z,1010.94
2018-07-24T03:48:45.844Z,1011.00
2018-07-24T03:49:45.816Z,1010.97
2018-07-24T03:51:41.786Z,1010.98
2018-07-24T03:52:40.254Z,1010.96
2018-07-24T03:54:35.724Z,1011.04
2018-07-24T03:55:35.235Z,1011.00
2018-07-24T03:57:29.677Z,1011.03
2018-07-24T03:58:29.150Z,1011.01
2018-07-24T04:00:23.629Z,1011.03
2018-07-24T04:01:23.604Z,1011.02
2018-07-24T04:03:19.539Z,1011.07
2018-07-24T04:04:19.571Z,1011.04
2018-07-24T04:06:14.014Z,1011.04
2018-07-24T04:07:14.534Z,1011.08
2018-07-24T04:09:08.989Z,1011.05
2018-07-24T04:10:08.990Z,1011.05
2018-07-24T04:12:03.438Z,1011.07
2018-07-24T04:13:02.942Z,1011.05
2018-07-24T04:14:57.899Z,1011.11
2018-07-24T04:15:57.378Z,1011.08
2018-07-24T04:17:53.839Z,1011.10
2018-07-24T04:18:51.842Z,1011.08
2018-07-24T04:20:46.825Z,1011.09
2018-07-24T04:21:46.316Z,1011.06
2018-07-24T04:23:41.282Z,1011.09
2018-07-24T04:24:40.769Z,1011.07
2018-07-24T04:26:35.767Z,1011.04
2018-07-24T04:27:35.236Z,1011.04
2018-07-24T04:29:28.722Z,1011.03
2018-07-24T04:30:28.700Z,1011.04
2018-07-24T04:32:23.188Z,1011.03
2018-07-24T04:33:23.195Z,1011.00
2018-07-24T04:35:18.152Z,1011.00
2018-07-24T04:36:17.600Z,1011.00
2018-07-24T04:38:12.578Z,1010.98
2018-07-24T04:39:12.553Z,1010.99
2018-07-24T04:41:07.050Z,1010.98
2018-07-24T04:42:06.508Z,1010.95
2018-07-24T04:44:02.957Z,1010.93
2018-07-24T04:45:02.464Z,1010.96
2018-07-24T04:46:59.434Z,1010.99
2018-07-24T04:47:58.929Z,1010.95
2018-07-24T04:49:52.893Z,1010.97
2018-07-24T04:50:53.386Z,1010.95
2018-07-24T04:52:46.359Z,1010.99
2018-07-24T04:53:46.334Z,1011.00
2018-07-24T04:55:40.797Z,1011.05
2018-07-24T04:56:39.770Z,1011.07
2018-07-24T04:58:35.711Z,1011.04
2018-07-24T04:59:34.214Z,1011.05
2018-07-24T05:01:32.183Z,1011.08
2018-07-24T05:02:31.207Z,1011.09
2018-07-24T05:04:26.150Z,1011.11
2018-07-24T05:05:26.140Z,1011.10
2018-07-24T05:07:20.609Z,1011.15
2018-07-24T05:08:20.600Z,1011.11
2018-07-24T05:10:15.098Z,1011.11
2018-07-24T05:11:16.493Z,1011.16
2018-07-24T05:13:10.037Z,1011.12
2018-07-24T05:14:09.549Z,1011.08
2018-07-24T05:16:05.462Z,1011.13
2018-07-24T05:17:06.417Z,1011.11
2018-07-24T05:19:02.448Z,1011.15
2018-07-24T05:20:01.454Z,1011.14
2018-07-24T05:21:57.923Z,1011.16
2018-07-24T05:22:57.923Z,1011.12
2018-07-24T05:24:53.897Z,1011.15
2018-07-24T05:25:53.435Z,1011.12
2018-07-24T05:27:46.895Z,1011.18
2018-07-24T05:28:46.852Z,1011.15
2018-07-24T05:30:41.331Z,1011.12
2018-07-24T05:31:41.317Z,1011.11
2018-07-24T05:33:36.299Z,1011.12
2018-07-24T05:34:35.767Z,1011.11
2018-07-24T05:36:30.726Z,1011.17
2018-07-24T05:37:30.237Z,1011.19
2018-07-24T05:39:25.208Z,1011.16
2018-07-24T05:40:25.207Z,1011.15
2018-07-24T05:42:20.647Z,1011.18
2018-07-24T05:43:20.657Z,1011.15
2018-07-24T05:45:15.150Z,1011.18
2018-07-24T05:46:15.098Z,1011.15
2018-07-24T05:48:10.054Z,1011.17
2018-07-24T05:49:10.091Z,1011.14
2018-07-24T05:51:07.517Z,1011.17
2018-07-24T05:52:05.525Z,1011.18
2018-07-24T05:54:00.016Z,1011.13
2018-07-24T05:55:00.060Z,1011.15
2018-07-24T05:56:54.472Z,1011.13
2018-07-24T05:57:54.467Z,1011.15
2018-07-24T05:59:50.456Z,1011.14
2018-07-24T06:00:50.429Z,1011.10
2018-07-24T06:02:44.890Z,1011.14
2018-07-24T06:03:44.909Z,1011.13
2018-07-24T06:05:38.334Z,1011.13
2018-07-24T06:06:38.345Z,1011.18
2018-07-24T06:08:34.292Z,1011.18
2018-07-24T06:09:34.316Z,1011.13
2018-07-24T06:11:30.290Z,1011.11
2018-07-24T06:12:31.264Z,1011.10
2018-07-24T06:14:24.800Z,1011.07
2018-07-24T06:15:25.252Z,1011.07
2018-07-24T06:17:19.238Z,1011.10
2018-07-24T06:18:19.215Z,1011.10
2018-07-24T06:20:13.682Z,1011.09
2018-07-24T06:21:12.674Z,1011.11
2018-07-24T06:23:07.638Z,1011.09
2018-07-24T06:24:07.172Z,1011.10
2018-07-24T06:26:03.126Z,1011.09
2018-07-24T06:27:03.106Z,1011.07
2018-07-24T06:29:01.047Z,1011.07
2018-07-24T06:30:01.080Z,1011.07
2018-07-24T06:31:56.020Z,1011.02
2018-07-24T06:32:55.535Z,1011.05
2018-07-24T06:34:50.497Z,1011.06
2018-07-24T06:35:49.963Z,1011.05
2018-07-24T06:37:46.422Z,1011.04
2018-07-24T06:38:46.425Z,1011.07
2018-07-24T06:40:40.885Z,1011.08
2018-07-24T06:41:41.309Z,1011.05
2018-07-24T06:43:35.782Z,1011.05
2018-07-24T06:44:35.368Z,1011.07
2018-07-24T06:46:29.329Z,1011.07
2018-07-24T06:47:29.312Z,1011.09
2018-07-24T06:49:25.308Z,1011.10
2018-07-24T06:50:25.797Z,1011.06
2018-07-24T06:52:19.756Z,1011.11
2018-07-24T06:53:19.757Z,1011.08
2018-07-24T06:55:13.194Z,1011.11
2018-07-24T06:56:13.719Z,1011.08
2018-07-24T06:58:09.163Z,1011.06
2018-07-24T06:59:09.155Z,1011.11
2018-07-24T07:01:03.131Z,1011.09
2018-07-24T07:02:02.607Z,1011.08
2018-07-24T07:03:57.572Z,1011.08
2018-07-24T07:04:57.076Z,1011.07
2018-07-24T07:06:51.548Z,1011.06
2018-07-24T07:07:52.529Z,1011.04
2018-07-24T07:09:47.004Z,1011.01
2018-07-24T07:10:46.004Z,1011.00
2018-07-24T07:12:39.487Z,1010.97
2018-07-24T07:13:39.507Z,1010.97
2018-07-24T07:15:32.956Z,1010.95
2018-07-24T07:16:32.942Z,1010.97
2018-07-24T07:18:27.869Z,1010.98
2018-07-24T07:19:27.344Z,1010.96
2018-07-24T07:21:21.323Z,1010.96
2018-07-24T07:22:22.757Z,1010.97
2018-07-24T07:24:16.814Z,1010.98
2018-07-24T07:25:16.793Z,1010.98
2018-07-24T07:27:10.289Z,1010.98
2018-07-24T07:28:10.257Z,1010.98
2018-07-24T07:30:05.215Z,1010.93
2018-07-24T07:31:04.724Z,1010.94
2018-07-24T07:32:59.176Z,1010.94
2018-07-24T07:33:59.183Z,1010.92
2018-07-24T07:35:52.634Z,1010.92
2018-07-24T07:36:52.642Z,1010.96
2018-07-24T07:38:49.629Z,1010.91
2018-07-24T07:39:49.107Z,1010.92
2018-07-24T07:41:43.054Z,1010.88
2018-07-24T07:42:43.068Z,1010.89
2018-07-24T07:44:37.536Z,1010.87
2018-07-24T07:45:37.548Z,1010.85
2018-07-24T07:47:32.516Z,1010.84
2018-07-24T07:48:32.016Z,1010.84
2018-07-24T07:50:27.967Z,1010.84
2018-07-24T07:51:26.512Z,1010.85
2018-07-24T07:53:19.938Z,1010.79
2018-07-24T07:54:19.945Z,1010.81
2018-07-24T07:56:14.402Z,1010.84
2018-07-24T07:57:13.411Z,1010.79
2018-07-24T07:59:08.894Z,1010.77
2018-07-24T08:00:07.895Z,1010.78
2018-07-24T08:02:02.340Z,1010.75
2018-07-24T08:03:02.353Z,1010.80
2018-07-24T08:04:55.785Z,1010.78
2018-07-24T08:05:55.804Z,1010.78
2018-07-24T08:07:50.755Z,1010.74
2018-07-24T08:08:51.255Z,1010.74
2018-07-24T08:10:46.257Z,1010.69
2018-07-24T08:11:47.732Z,1010.69
2018-07-24T08:13:45.214Z,1010.68
2018-07-24T08:14:44.196Z,1010.68
2018-07-24T08:16:40.182Z,1010.69
2018-07-24T08:17:40.168Z,1010.65
2018-07-24T08:19:37.632Z,1010.70
2018-07-24T08:20:36.133Z,1010.66
2018-07-24T08:22:29.650Z,1010.67
2018-07-24T08:23:29.643Z,1010.65
2018-07-24T08:25:24.058Z,1010.63
2018-07-24T08:26:24.609Z,1010.64
2018-07-24T08:28:18.069Z,1010.70
2018-07-24T08:29:17.540Z,1010.70
2018-07-24T08:31:12.018Z,1010.66
2018-07-24T08:32:12.025Z,1010.65
2018-07-24T08:34:07.992Z,1010.65
2018-07-24T08:35:07.997Z,1010.67
2018-07-24T08:37:02.969Z,1010.63
2018-07-24T08:38:02.473Z,1010.64
2018-07-24T08:39:56.435Z,1010.67
2018-07-24T08:40:56.438Z,1010.65
2018-07-24T08:42:49.420Z,1010.66
2018-07-24T08:43:50.409Z,1010.66
2018-07-24T08:45:43.373Z,1010.61
2018-07-24T08:46:42.887Z,1010.61
2018-07-24T08:48:37.370Z,1010.61
2018-07-24T08:49:37.373Z,1010.62
2018-07-24T08:51:32.340Z,1010.60
2018-07-24T08:52:31.896Z,1010.59
2018-07-24T08:54:25.430Z,1010.57
2018-07-24T08:55:25.490Z,1010.57
2018-07-24T08:57:20.788Z,1010.59
2018-07-24T08:58:19.787Z,1010.58
2018-07-24T09:00:14.277Z,1010.58
2018-07-24T09:01:14.276Z,1010.55
2018-07-24T09:03:08.783Z,1010.58
2018-07-24T09:04:08.771Z,1010.56
2018-07-24T09:06:03.233Z,1010.51
2018-07-24T09:07:04.219Z,1010.51
2018-07-24T09:08:59.224Z,1010.50
2018-07-24T09:09:58.231Z,1010.48
2018-07-24T09:11:56.675Z,1010.50
2018-07-24T09:12:55.880Z,1010.51
2018-07-24T09:14:50.309Z,1010.49
2018-07-24T09:15:50.321Z,1010.51
2018-07-24T09:17:46.263Z,1010.53
2018-07-24T09:18:46.286Z,1010.51
2018-07-24T09:20:39.761Z,1010.51
2018-07-24T09:21:39.740Z,1010.54
2018-07-24T09:23:35.738Z,1010.51
2018-07-24T09:24:35.728Z,1010.51
2018-07-24T09:26:30.198Z,1010.49
2018-07-24T09:27:29.688Z,1010.49
2018-07-24T09:29:26.156Z,1010.53
2018-07-24T09:30:26.163Z,1010.49
2018-07-24T09:32:20.136Z,1010.46
2018-07-24T09:33:19.637Z,1010.46
2018-07-24T09:35:13.089Z,1010.46
2018-07-24T09:36:13.605Z,1010.44
2018-07-24T09:38:07.060Z,1010.43
2018-07-24T09:39:06.548Z,1010.42
2018-07-24T09:41:00.026Z,1010.41
2018-07-24T09:42:00.034Z,1010.40
2018-07-24T09:43:56.011Z,1010.41
2018-07-24T09:44:56.013Z,1010.42
2018-07-24T09:46:50.987Z,1010.40
2018-07-24T09:47:50.501Z,1010.39
2018-07-24T09:49:47.450Z,1010.37
2018-07-24T09:50:46.955Z,1010.41
2018-07-24T09:52:40.891Z,1010.39
2018-07-24T09:53:40.936Z,1010.42
2018-07-24T09:55:35.892Z,1010.37
2018-07-24T09:56:35.432Z,1010.37
2018-07-24T09:58:30.356Z,1010.29
2018-07-24T09:59:30.823Z,1010.32
2018-07-24T10:01:25.833Z,1010.27
2018-07-24T10:02:25.820Z,1010.27
2018-07-24T10:04:19.786Z,1010.18
2018-07-24T10:05:20.295Z,1010.16
2018-07-24T10:07:13.795Z,1010.16
2018-07-24T10:08:14.266Z,1010.16
2018-07-24T10:10:09.279Z,1010.19
2018-07-24T10:11:08.288Z,1010.18
2018-07-24T10:13:03.416Z,1010.16
2018-07-24T10:14:02.745Z,1010.14
2018-07-24T10:15:56.204Z,1010.14
2018-07-24T10:16:56.333Z,1010.16
2018-07-24T10:18:50.745Z,1010.10
2018-07-24T10:19:50.699Z,1010.09
2018-07-24T10:21:47.165Z,1010.05
2018-07-24T10:22:45.195Z,1010.03
2018-07-24T10:24:39.675Z,1010.02
2018-07-24T10:25:40.591Z,1010.02
2018-07-24T10:27:36.639Z,1009.99
2018-07-24T10:28:34.161Z,1010.04
2018-07-24T10:30:30.709Z,1009.99
2018-07-24T10:31:30.135Z,1010.01
2018-07-24T10:33:27.107Z,1009.99
2018-07-24T10:34:26.116Z,1009.98
2018-07-24T10:36:21.604Z,1009.97
2018-07-24T10:37:20.667Z,1009.91
2018-07-24T10:39:15.112Z,1009.94
2018-07-24T10:40:16.110Z,1009.91
2018-07-24T10:42:10.099Z,1009.89
2018-07-24T10:43:10.610Z,1009.89
2018-07-24T10:45:03.059Z,1009.88
2018-07-24T10:46:03.067Z,1009.83
2018-07-24T10:47:58.546Z,1009.85
2018-07-24T10:48:57.549Z,1009.84
2018-07-24T10:50:53.504Z,1009.87
2018-07-24T10:51:53.530Z,1009.84
2018-07-24T10:53:47.979Z,1009.80
2018-07-24T10:54:47.990Z,1009.80
2018-07-24T10:56:42.478Z,1009.77
2018-07-24T10:57:42.460Z,1009.80
2018-07-24T10:59:37.933Z,1009.74
2018-07-24T11:00:36.954Z,1009.74
2018-07-24T11:02:30.395Z,1009.73
2018-07-24T11:03:30.430Z,1009.73
2018-07-24T11:05:24.896Z,1009.77
2018-07-24T11:06:25.385Z,1009.77
2018-07-24T11:08:18.353Z,1009.75
2018-07-24T11:09:18.355Z,1009.71
2018-07-24T11:11:14.322Z,1009.69
2018-07-24T11:12:14.312Z,1009.67
2018-07-24T11:14:10.298Z,1009.64
2018-07-24T11:15:10.285Z,1009.60
2018-07-24T11:17:06.241Z,1009.59
2018-07-24T11:18:06.245Z,1009.60
2018-07-24T11:20:02.229Z,1009.60
2018-07-24T11:21:02.236Z,1009.59
2018-07-24T11:22:55.912Z,1009.61
2018-07-24T11:23:55.720Z,1009.57
2018-07-24T11:25:50.673Z,1009.52
2018-07-24T11:26:50.185Z,1009.59
2018-07-24T11:28:46.148Z,1009.51
2018-07-24T11:29:44.658Z,1009.54
2018-07-24T11:31:40.630Z,1009.49
2018-07-24T11:32:41.119Z,1009.47
2018-07-24T11:34:35.089Z,1009.46
2018-07-24T11:35:35.241Z,1009.45
2018-07-24T11:37:30.597Z,1009.45
2018-07-24T11:38:29.658Z,1009.40
2018-07-24T11:40:23.062Z,1009.42
2018-07-24T11:41:23.070Z,1009.42
2018-07-24T11:43:18.452Z,1009.42
2018-07-24T11:44:17.535Z,1009.43
2018-07-24T11:46:12.019Z,1009.46
2018-07-24T11:47:12.035Z,1009.46
2018-07-24T11:49:06.484Z,1009.46
2018-07-24T11:50:07.501Z,1009.46
2018-07-24T11:52:02.986Z,1009.44
2018-07-24T11:53:00.980Z,1009.47
2018-07-24T11:54:55.460Z,1009.47
2018-07-24T11:55:55.431Z,1009.41
2018-07-24T11:57:49.905Z,1009.41
2018-07-24T11:58:49.893Z,1009.40
2018-07-24T12:00:43.369Z,1009.42
2018-07-24T12:01:44.375Z,1009.42
2018-07-24T12:03:39.459Z,1009.34
2018-07-24T12:04:39.386Z,1009.38
2018-07-24T12:06:34.861Z,1009.41
2018-07-24T12:07:34.360Z,1009.33
2018-07-24T12:09:27.343Z,1009.31
2018-07-24T12:10:27.331Z,1009.36
2018-07-24T12:12:21.798Z,1009.38
2018-07-24T12:13:21.832Z,1009.37
2018-07-24T12:15:16.813Z,1009.31
2018-07-24T12:16:16.261Z,1009.33
2018-07-24T12:18:10.708Z,1009.25
2018-07-24T12:19:11.231Z,1009.22
2018-07-24T12:21:05.179Z,1009.19
2018-07-24T12:22:05.194Z,1009.23
2018-07-24T12:23:59.177Z,1009.21
2018-07-24T12:24:59.672Z,1009.18
2018-07-24T12:26:55.160Z,1009.17
2018-07-24T12:27:54.658Z,1009.21
2018-07-24T12:29:50.619Z,1009.14
2018-07-24T12:30:50.638Z,1009.14
2018-07-24T12:32:47.600Z,1009.17
2018-07-24T12:33:46.613Z,1009.13
2018-07-24T12:35:41.579Z,1009.17
2018-07-24T12:36:41.054Z,1009.15
2018-07-24T12:38:36.044Z,1009.14
2018-07-24T12:39:36.997Z,1009.12
2018-07-24T12:41:29.000Z,1009.13
2018-07-24T12:42:29.010Z,1009.05
2018-07-24T12:44:24.981Z,1009.06
2018-07-24T12:45:24.480Z,1009.04
2018-07-24T12:47:16.980Z,1009.02
2018-07-24T12:48:16.994Z,1009.02
2018-07-24T12:50:12.463Z,1009.04
2018-07-24T12:51:11.464Z,1009.03
2018-07-24T12:53:05.947Z,1008.95
2018-07-24T12:54:05.977Z,1008.97
2018-07-24T12:56:01.951Z,1009.02
2018-07-24T12:57:01.934Z,1009.00
2018-07-24T12:58:56.421Z,1009.01
2018-07-24T12:59:57.406Z,1009.03
2018-07-24T13:01:52.419Z,1008.98
2018-07-24T13:02:52.902Z,1008.94
2018-07-24T13:04:48.386Z,1008.96
2018-07-24T13:05:48.388Z,1008.92
2018-07-24T13:07:42.901Z,1008.89
2018-07-24T13:08:43.861Z,1008.89
2018-07-24T13:10:38.371Z,1008.84
2018-07-24T13:11:37.368Z,1008.83
2018-07-24T13:13:30.847Z,1008.79
2018-07-24T13:14:30.834Z,1008.78
2018-07-24T13:16:25.325Z,1008.77
2018-07-24T13:17:25.336Z,1008.77
2018-07-24T13:19:21.820Z,1008.76
2018-07-24T13:20:21.317Z,1008.79
2018-07-24T13:22:15.767Z,1008.73
2018-07-24T13:23:15.797Z,1008.73
2018-07-24T13:25:10.275Z,1008.73
2018-07-24T13:26:09.245Z,1008.68
2018-07-24T13:28:04.222Z,1008.68
2018-07-24T13:29:04.635Z,1008.68
2018-07-24T13:30:58.176Z,1008.67
2018-07-24T13:31:58.204Z,1008.65
2018-07-24T13:33:53.189Z,1008.66
2018-07-24T13:34:52.685Z,1008.67
2018-07-24T13:36:47.687Z,1008.66
2018-07-24T13:37:47.193Z,1008.65
2018-07-24T13:39:42.650Z,1008.66
2018-07-24T13:40:42.661Z,1008.59
2018-07-24T13:42:37.166Z,1008.63
2018-07-24T13:43:39.080Z,1008.63
2018-07-24T13:45:32.105Z,1008.62
2018-07-24T13:46:32.117Z,1008.63
2018-07-24T13:48:27.088Z,1008.59
2018-07-24T13:49:26.596Z,1008.58
2018-07-24T13:51:21.577Z,1008.53
2018-07-24T13:52:21.076Z,1008.55
2018-07-24T13:54:16.074Z,1008.54
2018-07-24T13:55:15.570Z,1008.56
2018-07-24T13:57:11.557Z,1008.55
2018-07-24T13:59:28.022Z,1008.55
2018-07-24T14:00:27.492Z,1008.54
2018-07-24T14:02:24.470Z,1008.57
2018-07-24T14:03:24.395Z,1008.58
2018-07-24T14:05:19.956Z,1008.58
2018-07-24T14:06:19.439Z,1008.61
2018-07-24T14:08:15.476Z,1008.60
2018-07-24T14:09:15.399Z,1008.59
2018-07-24T14:11:08.870Z,1008.53
2018-07-24T14:12:08.873Z,1008.51
2018-07-24T14:14:05.859Z,1008.42
2018-07-24T14:15:05.847Z,1008.41
2018-07-24T14:16:58.861Z,1008.41
2018-07-24T14:17:58.352Z,1008.44
2018-07-24T14:19:54.829Z,1008.38
2018-07-24T14:20:54.327Z,1008.39
2018-07-24T14:22:50.301Z,1008.37
2018-07-24T14:23:50.303Z,1008.33
2018-07-24T14:25:46.290Z,1008.35
2018-07-24T14:26:46.248Z,1008.34
2018-07-24T14:28:42.277Z,1008.27
2018-07-24T14:29:42.281Z,1008.26
2018-07-24T14:31:38.206Z,1008.23
2018-07-24T14:32:36.725Z,1008.21
2018-07-24T14:34:33.700Z,1008.22
2018-07-24T14:35:33.686Z,1008.19
2018-07-24T14:37:28.689Z,1008.19
2018-07-24T14:38:28.674Z,1008.19
2018-07-24T14:40:24.669Z,1008.16
2018-07-24T14:41:24.652Z,1008.15
2018-07-24T14:43:20.629Z,1008.19
2018-07-24T14:44:20.617Z,1008.21
2018-07-24T14:46:16.606Z,1008.17
2018-07-24T14:47:15.105Z,1008.19
2018-07-24T14:49:11.056Z,1008.18
2018-07-24T14:50:11.079Z,1008.20
2018-07-24T14:52:08.045Z,1008.15
2018-07-24T14:53:08.050Z,1008.16
2018-07-24T14:55:02.974Z,1008.17
2018-07-24T14:56:02.996Z,1008.18
2018-07-24T14:57:57.970Z,1008.18
2018-07-24T14:58:57.975Z,1008.20
2018-07-24T15:00:53.468Z,1008.18
2018-07-24T15:01:54.455Z,1008.19
2018-07-24T15:03:46.946Z,1008.13
2018-07-24T15:04:46.982Z,1008.14
2018-07-24T15:06:43.404Z,1008.13
2018-07-24T15:07:43.906Z,1008.13
2018-07-24T15:09:38.904Z,1008.09
2018-07-24T15:10:39.892Z,1008.10
2018-07-24T15:12:33.432Z,1008.07
2018-07-24T15:13:34.379Z,1008.06
2018-07-24T15:15:29.311Z,1008.05
2018-07-24T15:16:29.327Z,1008.08
2018-07-24T15:18:23.821Z,1008.06
2018-07-24T15:19:24.807Z,1008.06
2018-07-24T15:21:19.808Z,1008.09
2018-07-24T15:22:19.811Z,1008.06
2018-07-24T15:24:14.298Z,1008.09
2018-07-24T15:25:14.296Z,1008.04
2018-07-24T15:27:09.325Z,1008.06
2018-07-24T15:28:08.787Z,1008.03
2018-07-24T15:30:05.250Z,1007.98
2018-07-24T15:31:04.751Z,1007.99
2018-07-24T15:32:58.316Z,1008.02
2018-07-24T15:33:58.294Z,1007.98
2018-07-24T15:35:54.213Z,1007.98
2018-07-24T15:36:54.213Z,1007.94
2018-07-24T15:38:48.708Z,1007.90
2018-07-24T15:39:48.702Z,1007.92
2018-07-24T15:41:44.676Z,1007.91
2018-07-24T15:42:44.697Z,1007.90
2018-07-24T15:44:39.687Z,1007.91
2018-07-24T15:45:40.156Z,1007.91
2018-07-24T15:47:35.642Z,1007.88
2018-07-24T15:48:35.158Z,1007.88
2018-07-24T15:50:31.170Z,1007.82
2018-07-24T15:51:31.146Z,1007.84
2018-07-24T15:53:27.137Z,1007.82
2018-07-24T15:54:27.123Z,1007.84
2018-07-24T15:56:22.090Z,1007.84
2018-07-24T15:57:21.130Z,1007.82
2018-07-24T15:59:17.585Z,1007.80
2018-07-24T16:00:17.582Z,1007.81
2018-07-24T16:02:11.589Z,1007.81
2018-07-24T16:03:12.073Z,1007.80
2018-07-24T16:05:06.171Z,1007.79
2018-07-24T16:06:05.711Z,1007.75
2018-07-24T16:08:00.179Z,1007.77
2018-07-24T16:09:00.152Z,1007.79
2018-07-24T16:10:56.603Z,1007.77
2018-07-24T16:11:54.608Z,1007.76
2018-07-24T16:13:52.083Z,1007.75
2018-07-24T16:14:51.521Z,1007.74
2018-07-24T16:16:46.582Z,1007.73
2018-07-24T16:17:47.573Z,1007.67
2018-07-24T16:19:41.080Z,1007.71
2018-07-24T16:20:41.089Z,1007.70
2018-07-24T16:22:35.546Z,1007.74
2018-07-24T16:23:36.041Z,1007.76
2018-07-24T16:25:31.557Z,1007.73
2018-07-24T16:26:32.056Z,1007.74
2018-07-24T16:28:26.966Z,1007.75
2018-07-24T16:29:26.963Z,1007.77
2018-07-24T16:31:21.992Z,1007.72
2018-07-24T16:32:22.001Z,1007.69
2018-07-24T16:34:16.969Z,1007.67
2018-07-24T16:35:16.497Z,1007.61
2018-07-24T16:37:13.538Z,1007.68
2018-07-24T16:38:12.465Z,1007.67
2018-07-24T16:40:07.442Z,1007.66
2018-07-24T16:41:07.953Z,1007.66
2018-07-24T16:43:02.941Z,1007.67
2018-07-24T16:44:03.016Z,1007.69
2018-07-24T16:45:58.912Z,1007.66
2018-07-24T16:46:58.963Z,1007.70
2018-07-24T16:48:53.401Z,1007.87
2018-07-24T16:49:53.404Z,1007.89
2018-07-24T16:51:49.409Z,1007.91
2018-07-24T16:52:49.884Z,1007.92
2018-07-24T16:54:45.880Z,1007.90
2018-07-24T16:55:45.378Z,1007.89
2018-07-24T16:57:41.354Z,1007.88
2018-07-24T16:58:41.385Z,1007.88
2018-07-24T17:00:36.853Z,1007.82
2018-07-24T17:01:35.874Z,1007.76
2018-07-24T17:03:31.830Z,1007.63
2018-07-24T17:04:31.833Z,1007.58
2018-07-24T17:06:27.797Z,1007.60
2018-07-24T17:07:27.816Z,1007.55
2018-07-24T17:09:24.288Z,1007.56
2018-07-24T17:10:23.806Z,1007.59
2018-07-24T17:12:17.258Z,1007.56
2018-07-24T17:13:18.265Z,1007.58
2018-07-24T17:15:11.728Z,1007.54
2018-07-24T17:16:12.252Z,1007.53
2018-07-24T17:18:08.220Z,1007.48
2018-07-24T17:19:08.703Z,1007.48
2018-07-24T17:21:02.255Z,1007.49
2018-07-24T17:22:02.221Z,1007.52
2018-07-24T17:23:58.212Z,1007.50
2018-07-24T17:24:58.204Z,1007.47
2018-07-24T17:26:54.706Z,1007.46
2018-07-24T17:27:54.181Z,1007.44
2018-07-24T17:29:50.664Z,1007.49
2018-07-24T17:30:50.163Z,1007.49
2018-07-24T17:32:46.642Z,1007.47
2018-07-24T17:33:46.137Z,1007.48
2018-07-24T17:35:44.657Z,1007.49
2018-07-24T17:36:46.124Z,1007.49
2018-07-24T17:38:38.724Z,1007.51